Time;durP1;ratioP1;P1;durP2;ratioP2;P2;SDS_P1;SDS_P2;PMS_P1;PMS_P2;Temp;Humidity;BMP_temperature;BMP_pressure;BME280_temperature;BME280_humidity;BME280_pressure;Samples;Min_cycle;Max_cycle;Signal;HPM_P1;HPM_P2
2021/07/14 00:00:08;;;;;;;62.57;43.83;;;19.80;97.20;;;;;;5113758;28;20473;-67
2021/07/14 00:02:34;;;;;;;64.67;42.30;;;19.80;97.30;;;;;;5113771;28;20400;-67
2021/07/14 00:05:00;;;;;;;59.53;40.87;;;19.80;97.30;;;;;;5112962;28;20058;-67
2021/07/14 00:07:25;;;;;;;65.47;42.50;;;19.80;97.40;;;;;;5113439;27;20434;-67
2021/07/14 00:09:51;;;;;;;66.83;43.70;;;19.80;97.40;;;;;;5113807;28;20512;-67
2021/07/14 00:12:18;;;;;;;56.37;38.50;;;19.70;97.50;;;;;;5112668;28;20101;-67
2021/07/14 00:17:52;;;;;;;68.00;41.00;;;19.70;97.50;;;;;;5112892;28;20093;-67
2021/07/14 00:23:02;;;;;;;57.23;37.67;;;19.60;97.40;;;;;;5113435;28;20168;-67
2021/07/14 00:25:27;;;;;;;61.77;38.27;;;19.60;97.40;;;;;;5112574;28;20079;-67
2021/07/14 00:27:53;;;;;;;73.70;43.50;;;19.60;97.50;;;;;;5113256;28;20464;-67
2021/07/14 00:30:27;;;;;;;67.70;41.07;;;19.60;97.50;;;;;;5112872;28;20048;-67
2021/07/14 00:32:53;;;;;;;67.33;43.57;;;19.50;97.50;;;;;;5112699;28;20051;-67
2021/07/14 00:35:19;;;;;;;73.37;43.90;;;19.50;97.50;;;;;;5112768;28;20045;-67
2021/07/14 00:37:45;;;;;;;68.83;43.60;;;19.50;97.60;;;;;;5113268;28;20181;-67
2021/07/14 00:40:12;;;;;;;75.47;47.17;;;19.50;97.50;;;;;;5112129;28;20051;-67
2021/07/14 00:42:38;;;;;;;60.23;41.20;;;19.50;97.60;;;;;;5112937;28;20061;-66
2021/07/14 00:45:05;;;;;;;60.97;45.07;;;19.50;97.60;;;;;;5113341;28;20115;-67
2021/07/14 00:47:33;;;;;;;58.77;41.83;;;19.40;97.60;;;;;;5112156;28;20047;-67
2021/07/14 00:49:59;;;;;;;72.03;48.57;;;19.40;97.60;;;;;;5113063;28;20126;-67
2021/07/14 00:52:26;;;;;;;63.07;45.17;;;19.40;97.60;;;;;;5112790;28;20054;-67
2021/07/14 00:54:52;;;;;;;58.23;43.20;;;19.40;97.60;;;;;;5112175;28;20064;-67
2021/07/14 00:57:19;;;;;;;55.40;40.53;;;19.40;97.60;;;;;;5112706;28;20051;-67
2021/07/14 00:59:45;;;;;;;64.00;45.57;;;19.40;97.60;;;;;;5112892;28;20046;-67
2021/07/14 01:02:12;;;;;;;66.43;48.20;;;19.40;97.70;;;;;;5111894;28;20130;-67
2021/07/14 01:04:46;;;;;;;64.00;42.47;;;19.40;97.70;;;;;;5112944;28;20055;-67
2021/07/14 01:07:17;;;;;;;54.50;40.83;;;19.40;97.70;;;;;;5112388;28;20044;-67
2021/07/14 01:10:03;;;;;;;65.13;45.63;;;19.30;97.70;;;;;;5112014;28;20126;-67
2021/07/14 01:12:41;;;;;;;52.57;38.57;;;19.30;97.60;;;;;;5111828;28;20051;-67
2021/07/14 01:15:08;;;;;;;59.70;42.20;;;19.40;97.60;;;;;;5111917;28;20059;-67
2021/07/14 01:17:40;;;;;;;47.47;38.50;;;19.40;97.60;;;;;;5112088;28;20048;-67
2021/07/14 01:20:22;;;;;;;53.97;39.17;;;19.40;97.50;;;;;;5112462;28;20059;-67
2021/07/14 01:23:07;;;;;;;;;;;19.30;97.50;;;;;;5112309;28;20109;-67
2021/07/14 01:26:11;;;;;;;55.27;37.97;;;19.30;97.40;;;;;;5112421;28;19926;-67
2021/07/14 01:28:39;;;;;;;63.77;42.43;;;19.30;97.40;;;;;;5112464;28;20080;-67
2021/07/14 01:31:07;;;;;;;65.67;43.23;;;19.30;97.40;;;;;;5112702;28;20047;-67
2021/07/14 01:33:38;;;;;;;60.57;41.13;;;19.30;97.40;;;;;;5112096;28;20070;-67
2021/07/14 01:36:08;;;;;;;67.43;42.97;;;19.30;97.50;;;;;;5112192;28;20047;-67
2021/07/14 01:38:36;;;;;;;64.20;41.43;;;19.30;97.50;;;;;;5112368;28;20184;-67
2021/07/14 01:41:04;;;;;;;70.93;44.77;;;19.30;97.50;;;;;;5112284;28;20040;-67
2021/07/14 01:43:36;;;;;;;61.23;41.63;;;19.20;97.50;;;;;;5111395;28;20054;-67
2021/07/14 01:46:05;;;;;;;62.77;42.50;;;19.30;97.50;;;;;;5112570;28;20047;-67
2021/07/14 01:48:33;;;;;;;56.20;38.37;;;19.20;97.50;;;;;;5111838;28;20043;-67
2021/07/14 01:51:01;;;;;;;64.23;43.23;;;19.20;97.50;;;;;;5111434;28;20121;-67
2021/07/14 01:53:27;;;;;;;70.30;44.40;;;19.20;97.50;;;;;;5111983;28;20104;-67
2021/07/14 01:55:54;;;;;;;74.83;44.43;;;19.20;97.60;;;;;;5112428;28;20098;-67
2021/07/14 01:58:22;;;;;;;65.47;41.73;;;19.20;97.60;;;;;;5111167;28;20071;-67
2021/07/14 02:00:52;;;;;;;71.37;42.57;;;19.20;97.70;;;;;;5112017;28;20107;-67
2021/07/14 02:06:00;;;;;;;73.87;44.57;;;19.20;97.70;;;;;;5111419;28;20048;-67
2021/07/14 02:08:26;;;;;;;87.47;46.20;;;19.10;97.60;;;;;;5111974;28;20051;-67
2021/07/14 02:10:53;;;;;;;70.10;41.60;;;19.20;97.60;;;;;;5111397;28;20535;-67
2021/07/14 02:13:21;;;;;;;79.47;42.70;;;19.10;98.00;;;;;;5115103;28;20502;-67
2021/07/14 02:15:52;;;;;;;68.53;41.17;;;19.10;97.60;;;;;;5116314;28;20054;-67
2021/07/14 02:18:21;;;;;;;61.80;39.53;;;19.10;97.60;;;;;;5114930;28;20063;-67
2021/07/14 02:20:47;;;;;;;68.43;40.47;;;19.10;97.60;;;;;;5116040;28;20127;-67
2021/07/14 02:23:13;;;;;;;60.53;40.10;;;19.30;97.60;;;;;;5115725;28;20073;-67
2021/07/14 02:25:39;;;;;;;76.70;42.23;;;19.20;97.60;;;;;;5115102;28;20100;-67
2021/07/14 02:28:06;;;;;;;98.27;46.07;;;19.20;97.60;;;;;;5116157;28;20453;-67
2021/07/14 02:30:31;;;;;;;72.67;40.80;;;19.20;97.60;;;;;;5115399;28;20092;-68
2021/07/14 02:33:03;;;;;;;93.10;43.33;;;19.10;97.60;;;;;;5115244;28;20051;-67
2021/07/14 02:35:29;;;;;;;;;;;19.10;97.60;;;;;;5116098;28;20043;-67
2021/07/14 02:38:20;;;;;;;105.17;44.67;;;19.10;97.70;;;;;;5116156;28;19951;-67
2021/07/14 02:40:53;;;;;;;77.87;39.83;;;19.10;97.70;;;;;;5115034;28;20117;-67
2021/07/14 02:43:25;;;;;;;74.23;40.47;;;19.10;97.70;;;;;;5115338;28;20135;-67
2021/07/14 02:45:52;;;;;;;106.60;43.17;;;19.00;97.70;;;;;;5116185;27;20047;-66
2021/07/14 02:48:20;;;;;;;94.83;43.27;;;19.00;97.80;;;;;;5114979;28;20122;-67
2021/07/14 02:50:47;;;;;;;111.63;44.47;;;19.00;97.90;;;;;;5115775;28;20043;-67
2021/07/14 02:53:16;;;;;;;87.97;40.93;;;18.90;98.00;;;;;;5114589;28;20047;-67
2021/07/14 02:55:45;;;;;;;70.33;38.73;;;19.00;98.10;;;;;;5115601;28;20052;-67
2021/07/14 02:58:12;;;;;;;78.03;38.67;;;18.90;98.10;;;;;;5115845;28;20093;-67
2021/07/14 03:00:40;;;;;;;92.97;40.27;;;18.90;98.10;;;;;;5114985;28;20063;-67
2021/07/14 03:03:10;;;;;;;91.53;37.53;;;18.90;98.20;;;;;;5114981;28;20055;-67
2021/07/14 03:05:38;;;;;;;63.00;33.97;;;18.90;98.20;;;;;;5115193;28;20111;-67
2021/07/14 03:08:09;;;;;;;73.47;37.13;;;18.80;98.30;;;;;;5114341;28;20040;-67
2021/07/14 03:10:35;;;;;;;;;;;18.90;98.30;;;;;;5115975;28;20399;-67
2021/07/14 03:13:03;;;;;;;59.63;31.30;;;18.90;98.50;;;;;;5115185;28;20006;-67
2021/07/14 03:15:31;;;;;;;70.17;34.23;;;18.80;98.30;;;;;;5113875;28;20463;-67
2021/07/14 03:17:58;;;;;;;54.47;30.13;;;18.80;98.20;;;;;;5114611;28;20415;-67
2021/07/14 03:20:24;;;;;;;85.93;37.13;;;18.80;98.30;;;;;;5114472;28;20048;-67
2021/07/14 03:22:51;;;;;;;66.90;35.47;;;18.80;98.30;;;;;;5113780;28;20059;-67
2021/07/14 03:25:18;;;;;;;73.47;35.90;;;18.80;98.30;;;;;;5113502;28;20119;-67
2021/07/14 03:27:46;;;;;;;65.40;35.30;;;18.80;98.40;;;;;;5114643;28;20039;-67
2021/07/14 03:30:13;;;;;;;99.03;41.77;;;18.80;98.40;;;;;;5113610;28;20100;-67
2021/07/14 03:32:40;;;;;;;87.90;41.07;;;18.80;98.30;;;;;;5114738;28;20067;-67
2021/07/14 03:35:08;;;;;;;74.03;39.03;;;18.80;98.40;;;;;;5114402;28;20586;-67
2021/07/14 03:37:35;;;;;;;64.57;36.37;;;18.80;98.40;;;;;;5113750;28;20044;-67
2021/07/14 03:40:04;;;;;;;67.23;39.47;;;18.80;98.40;;;;;;5114463;27;20127;-67
2021/07/14 03:42:31;;;;;;;71.73;39.13;;;18.80;98.40;;;;;;5113900;28;20112;-67
2021/07/14 03:44:58;;;;;;;68.47;39.93;;;18.80;98.40;;;;;;5114429;28;20484;-66
2021/07/14 03:47:26;;;;;;;61.47;37.40;;;18.90;98.40;;;;;;5113977;28;20072;-67
2021/07/14 03:49:54;;;;;;;65.83;38.70;;;18.80;98.30;;;;;;5113414;28;20112;-67
2021/07/14 03:52:21;;;;;;;78.47;42.40;;;18.90;98.30;;;;;;5113826;27;20131;-66
2021/07/14 03:54:48;;;;;;;78.93;42.33;;;18.90;98.30;;;;;;5114180;28;20101;-67
2021/07/14 03:57:15;;;;;;;76.43;45.33;;;18.90;98.30;;;;;;5112762;28;20120;-67
2021/07/14 03:59:42;;;;;;;76.57;44.03;;;18.90;98.30;;;;;;5114279;28;20050;-66
2021/07/14 04:02:11;;;;;;;74.93;43.97;;;18.90;98.40;;;;;;5112781;28;20577;-67
2021/07/14 04:04:38;;;;;;;74.53;44.33;;;18.90;98.40;;;;;;5112133;28;20105;-66
2021/07/14 04:07:13;;;;;;;72.03;42.03;;;18.90;98.40;;;;;;5113309;28;20135;-66
2021/07/14 04:09:42;;;;;;;72.60;44.30;;;18.90;98.40;;;;;;5110378;28;20043;-67
2021/07/14 04:12:07;;;;;;;63.20;40.77;;;18.80;98.30;;;;;;5112243;28;20391;-66
2021/07/14 04:14:33;;;;;;;72.37;45.43;;;18.90;98.30;;;;;;5112503;28;20040;-66
2021/07/14 04:16:59;;;;;;;68.57;45.73;;;18.90;98.30;;;;;;5110185;28;20100;-67
2021/07/14 04:19:26;;;;;;;62.77;44.53;;;18.90;98.30;;;;;;5111475;28;20084;-67
2021/07/14 04:21:52;;;;;;;58.83;39.13;;;18.90;98.20;;;;;;5113179;28;20043;-67
2021/07/14 04:24:18;;;;;;;56.40;41.27;;;18.90;98.10;;;;;;5112026;28;20043;-67
2021/07/14 04:26:44;;;;;;;68.07;46.23;;;18.90;98.10;;;;;;5112005;28;20062;-66
2021/07/14 04:29:10;;;;;;;59.40;42.83;;;19.00;98.10;;;;;;5111973;28;20039;-67
2021/07/14 04:31:37;;;;;;;65.50;46.40;;;19.00;98.10;;;;;;5111883;28;20043;-66
2021/07/14 04:34:03;;;;;;;55.00;41.90;;;19.00;98.10;;;;;;5112702;28;20066;-67
2021/07/14 04:36:32;;;;;;;59.17;43.13;;;19.00;98.00;;;;;;5111928;28;20384;-66
2021/07/14 04:38:58;;;;;;;57.23;43.57;;;19.00;97.90;;;;;;5111186;28;20096;-66
2021/07/14 04:41:24;;;;;;;57.77;41.83;;;19.00;97.90;;;;;;5112282;28;20039;-66
2021/07/14 04:43:50;;;;;;;52.40;42.50;;;19.00;97.90;;;;;;5111337;28;20594;-66
2021/07/14 04:46:16;;;;;;;61.03;45.97;;;19.00;97.90;;;;;;5110931;28;20131;-66
2021/07/14 04:48:42;;;;;;;50.07;41.87;;;19.00;97.90;;;;;;5111784;28;20122;-66
2021/07/14 04:51:07;;;;;;;50.17;39.57;;;19.00;97.90;;;;;;5110782;28;20047;-66
2021/07/14 04:53:33;;;;;;;50.70;40.03;;;19.00;97.80;;;;;;5111193;28;20040;-67
2021/07/14 04:55:59;;;;;;;56.00;42.97;;;19.00;97.70;;;;;;5112285;28;20122;-66
2021/07/14 04:58:25;;;;;;;51.27;42.10;;;19.10;97.70;;;;;;5111545;28;20420;-67
2021/07/14 05:00:52;;;;;;;62.37;46.23;;;19.10;97.70;;;;;;5111424;28;20404;-66
2021/07/14 05:03:18;;;;;;;58.17;45.67;;;19.10;97.70;;;;;;5110867;28;20093;-67
2021/07/14 05:05:43;;;;;;;50.67;40.83;;;19.10;97.70;;;;;;5111880;28;20446;-66
2021/07/14 05:08:09;;;;;;;53.07;42.77;;;19.10;97.60;;;;;;5110481;28;20545;-67
2021/07/14 05:10:35;;;;;;;53.50;44.20;;;19.10;97.50;;;;;;5111807;28;20043;-66
2021/07/14 05:13:01;;;;;;;51.07;40.47;;;19.10;97.60;;;;;;5111724;28;20074;-66
2021/07/14 05:15:27;;;;;;;52.00;41.90;;;19.10;97.50;;;;;;5110081;28;20554;-66
2021/07/14 05:17:53;;;;;;;57.90;44.50;;;19.10;97.50;;;;;;5111398;28;20059;-67
2021/07/14 05:20:19;;;;;;;44.90;36.47;;;19.10;97.50;;;;;;5110078;28;20046;-67
2021/07/14 05:22:45;;;;;;;55.60;41.60;;;19.20;97.50;;;;;;5110777;28;20047;-66
2021/07/14 05:25:11;;;;;;;51.07;40.70;;;19.20;97.40;;;;;;5110984;28;20063;-66
2021/07/14 05:27:37;;;;;;;48.40;37.60;;;19.20;97.30;;;;;;5111395;28;20047;-67
2021/07/14 05:30:08;;;;;;;43.93;37.10;;;19.20;97.20;;;;;;5110705;28;20049;-66
2021/07/14 05:32:34;;;;;;;42.80;36.83;;;19.20;97.20;;;;;;5111941;28;20077;-67
2021/07/14 05:35:01;;;;;;;46.47;36.90;;;19.20;97.20;;;;;;5110638;28;20071;-66
2021/07/14 05:37:27;;;;;;;38.87;33.17;;;19.30;97.10;;;;;;5111223;28;20480;-66
2021/07/14 05:39:53;;;;;;;43.63;39.00;;;19.30;97.10;;;;;;5111228;28;20055;-66
2021/07/14 05:42:18;;;;;;;36.17;31.90;;;19.30;97.10;;;;;;5110376;28;20042;-66
2021/07/14 05:44:44;;;;;;;36.33;30.77;;;19.40;97.10;;;;;;5111401;28;20473;-66
2021/07/14 05:47:11;;;;;;;34.07;28.20;;;19.40;97.00;;;;;;5110329;28;20429;-67
2021/07/14 05:49:36;;;;;;;36.07;31.17;;;19.50;96.90;;;;;;5110672;28;20047;-66
2021/07/14 05:52:02;;;;;;;37.87;30.83;;;19.60;96.80;;;;;;5111478;28;20050;-67
2021/07/14 05:54:29;;;;;;;32.87;28.47;;;19.60;96.70;;;;;;5110966;28;20047;-67
2021/07/14 05:56:54;;;;;;;33.67;28.53;;;19.60;96.50;;;;;;5110628;28;20071;-66
2021/07/14 05:59:20;;;;;;;34.93;30.53;;;19.70;96.40;;;;;;5110640;28;20376;-67
2021/07/14 06:01:46;;;;;;;28.07;25.07;;;19.70;96.40;;;;;;5111257;28;20480;-67
2021/07/14 06:04:11;;;;;;;31.73;26.30;;;19.70;96.30;;;;;;5110095;28;20054;-67
2021/07/14 06:06:37;;;;;;;28.50;25.60;;;19.70;96.20;;;;;;5111149;28;20487;-67
2021/07/14 06:09:04;;;;;;;28.97;26.03;;;19.70;96.10;;;;;;5111030;28;20043;-67
2021/07/14 06:11:29;;;;;;;25.67;22.87;;;19.80;96.10;;;;;;5110121;28;20089;-66
2021/07/14 06:13:55;;;;;;;27.87;24.50;;;19.70;96.00;;;;;;5110853;28;20051;-67
2021/07/14 06:16:21;;;;;;;27.97;25.23;;;19.80;95.90;;;;;;5110957;28;20495;-67
2021/07/14 06:18:47;;;;;;;28.70;25.73;;;19.80;95.90;;;;;;5109926;28;20078;-68
2021/07/14 06:21:13;;;;;;;28.93;25.93;;;19.80;95.90;;;;;;5110564;28;20519;-66
2021/07/14 06:23:39;;;;;;;25.30;22.63;;;19.70;95.80;;;;;;5110730;28;20051;-67
2021/07/14 06:26:05;;;;;;;25.17;22.37;;;19.70;95.70;;;;;;5110379;28;20043;-67
2021/07/14 06:28:30;;;;;;;22.87;20.57;;;19.70;95.70;;;;;;5110329;28;20214;-67
2021/07/14 06:30:56;;;;;;;27.07;22.90;;;19.80;95.70;;;;;;5111008;28;20035;-66
2021/07/14 06:33:22;;;;;;;26.23;23.43;;;19.80;95.70;;;;;;5110662;28;20493;-66
2021/07/14 06:35:51;;;;;;;25.60;22.43;;;19.80;95.80;;;;;;5111800;28;20396;-67
2021/07/14 06:38:16;;;;;;;23.90;20.73;;;19.80;95.60;;;;;;5109777;28;20416;-66
2021/07/14 06:40:42;;;;;;;28.37;22.10;;;19.80;95.50;;;;;;5110493;28;20036;-66
2021/07/14 06:43:13;;;;;;;24.03;21.53;;;19.90;95.50;;;;;;5111671;28;20054;-66
2021/07/14 06:45:40;;;;;;;24.95;21.65;;;19.90;95.40;;;;;;5110921;28;20043;-66
2021/07/14 06:48:05;;;;;;;24.87;20.73;;;19.90;95.40;;;;;;5111518;28;20488;-67
2021/07/14 06:50:31;;;;;;;26.03;22.07;;;19.90;95.30;;;;;;5111434;28;20043;-67
2021/07/14 06:52:59;;;;;;;23.80;21.27;;;19.90;95.20;;;;;;5110892;28;20047;-66
2021/07/14 06:55:24;;;;;;;23.27;20.87;;;20.00;95.30;;;;;;5110999;28;20051;-66
2021/07/14 06:57:50;;;;;;;23.47;21.23;;;20.00;95.10;;;;;;5112176;28;20055;-66
2021/07/14 07:00:16;;;;;;;22.70;20.10;;;20.10;95.10;;;;;;5114293;28;20478;-65
2021/07/14 07:02:44;;;;;;;21.33;19.07;;;20.10;95.10;;;;;;5115309;28;20071;-67
2021/07/14 07:05:10;;;;;;;23.40;20.50;;;20.10;95.10;;;;;;5115061;28;20047;-67
2021/07/14 07:07:36;;;;;;;25.77;20.43;;;20.10;95.10;;;;;;5114236;28;20043;-67
2021/07/14 07:10:04;;;;;;;22.87;20.47;;;20.10;95.10;;;;;;5114042;28;20488;-66
2021/07/14 07:12:29;;;;;;;24.00;21.20;;;20.10;94.90;;;;;;5111680;28;20046;-66
2021/07/14 07:14:55;;;;;;;22.67;20.33;;;20.10;95.00;;;;;;5113910;28;20052;-66
2021/07/14 07:17:21;;;;;;;21.53;19.27;;;20.20;95.00;;;;;;5113793;28;20126;-67
2021/07/14 07:19:47;;;;;;;21.93;18.97;;;20.20;94.90;;;;;;5113624;28;20063;-66
2021/07/14 07:22:12;;;;;;;24.27;21.73;;;20.20;94.90;;;;;;5112985;28;20112;-67
2021/07/14 07:24:38;;;;;;;23.43;20.93;;;20.20;94.80;;;;;;5113468;28;20039;-66
2021/07/14 07:27:07;;;;;;;24.33;21.07;;;20.20;94.70;;;;;;5114222;28;20130;-66
2021/07/14 07:29:33;;;;;;;25.47;21.10;;;20.20;94.80;;;;;;5113158;28;20047;-67
2021/07/14 07:31:58;;;;;;;24.70;21.43;;;20.20;94.80;;;;;;5114292;28;20387;-67
2021/07/14 07:34:24;;;;;;;25.23;22.60;;;20.20;94.80;;;;;;5112374;28;20048;-66
2021/07/14 07:36:50;;;;;;;23.50;21.20;;;20.30;94.80;;;;;;5114027;28;20059;-67
2021/07/14 07:39:15;;;;;;;21.97;19.67;;;20.30;94.70;;;;;;5110429;28;20065;-67
2021/07/14 07:41:42;;;;;;;24.40;21.60;;;20.30;94.70;;;;;;5113132;28;20100;-67
2021/07/14 07:44:08;;;;;;;22.47;20.20;;;20.30;94.70;;;;;;5113698;28;20096;-67
2021/07/14 07:46:34;;;;;;;24.00;21.57;;;20.30;94.60;;;;;;5114483;28;20047;-67
2021/07/14 07:49:01;;;;;;;26.42;23.35;;;20.40;94.60;;;;;;5113795;28;20488;-66
2021/07/14 07:51:27;;;;;;;24.63;22.17;;;20.40;94.60;;;;;;5113917;28;20616;-66
2021/07/14 07:53:53;;;;;;;23.90;21.33;;;20.40;94.60;;;;;;5113441;28;20058;-67
2021/07/14 07:56:19;;;;;;;21.43;19.17;;;20.40;94.60;;;;;;5112538;28;20035;-67
2021/07/14 07:58:44;;;;;;;23.80;21.40;;;20.50;95.00;;;;;;5112873;27;20375;-66
2021/07/14 08:01:11;;;;;;;25.77;23.13;;;20.50;94.60;;;;;;5112790;28;20044;-67
2021/07/14 08:03:37;;;;;;;23.50;21.10;;;20.50;94.50;;;;;;5112827;28;20071;-66
2021/07/14 08:06:02;;;;;;;25.27;21.93;;;20.60;94.50;;;;;;5112918;28;20116;-66
2021/07/14 08:08:28;;;;;;;25.80;23.17;;;20.60;94.50;;;;;;5113040;28;20047;-67
2021/07/14 08:10:56;;;;;;;26.67;23.87;;;20.60;94.50;;;;;;5111725;28;20060;-67
2021/07/14 08:13:22;;;;;;;24.83;22.40;;;20.70;94.50;;;;;;5113287;28;20043;-67
2021/07/14 08:15:48;;;;;;;26.83;23.03;;;20.70;94.50;;;;;;5113816;28;20044;-67
2021/07/14 08:18:15;;;;;;;26.27;23.47;;;20.70;94.50;;;;;;5112299;28;20062;-67
2021/07/14 08:20:42;;;;;;;27.23;22.90;;;20.70;94.30;;;;;;5113368;28;20510;-67
2021/07/14 08:23:10;;;;;;;25.67;23.17;;;20.70;94.30;;;;;;5113745;28;20120;-67
2021/07/14 08:25:37;;;;;;;25.57;22.93;;;20.80;94.30;;;;;;5112855;28;20043;-67
2021/07/14 08:28:04;;;;;;;26.52;23.77;;;20.80;94.20;;;;;;5113238;28;20050;-67
2021/07/14 08:30:33;;;;;;;25.95;23.25;;;20.90;94.20;;;;;;5113249;28;20085;-67
2021/07/14 08:32:58;;;;;;;24.98;22.50;;;20.90;94.10;;;;;;5112277;28;20051;-66
2021/07/14 08:35:27;;;;;;;30.60;26.42;;;20.90;94.00;;;;;;5112683;28;20100;-66
2021/07/14 08:37:52;;;;;;;25.95;23.48;;;21.00;94.00;;;;;;5112481;28;20127;-66
2021/07/14 08:40:19;;;;;;;27.95;25.23;;;21.00;93.90;;;;;;5112969;28;20069;-66
2021/07/14 08:42:48;;;;;;;30.15;27.00;;;21.10;94.00;;;;;;5112711;28;20055;-67
2021/07/14 08:45:18;;;;;;;28.55;24.40;;;21.10;93.90;;;;;;5111196;28;20515;-67
2021/07/14 08:47:45;;;;;;;28.97;25.87;;;21.10;93.90;;;;;;5112576;28;20488;-66
2021/07/14 08:50:11;;;;;;;29.90;26.90;;;21.10;93.80;;;;;;5109277;28;20044;-67
2021/07/14 08:52:42;;;;;;;30.10;26.92;;;21.10;93.90;;;;;;5111351;28;20476;-66
2021/07/14 08:55:12;;;;;;;27.25;24.55;;;21.20;93.90;;;;;;5111662;28;20111;-67
2021/07/14 08:57:38;;;;;;;27.95;25.08;;;21.30;93.90;;;;;;5112274;28;20197;-66
2021/07/14 09:00:08;;;;;;;28.30;25.30;;;21.30;93.70;;;;;;5111310;28;20052;-66
2021/07/14 09:02:35;;;;;;;28.93;26.03;;;21.30;93.60;;;;;;5109984;28;20420;-66
2021/07/14 09:05:01;;;;;;;29.38;26.30;;;21.30;93.70;;;;;;5111834;28;20048;-66
2021/07/14 09:07:29;;;;;;;30.00;26.83;;;21.40;93.60;;;;;;5111004;28;20036;-67
2021/07/14 09:09:55;;;;;;;28.15;25.45;;;21.40;93.40;;;;;;5112659;28;20167;-67
2021/07/14 09:12:33;;;;;;;28.92;26.02;;;21.30;93.40;;;;;;5112240;28;20560;-67
2021/07/14 09:15:05;;;;;;;30.13;27.30;;;21.40;93.50;;;;;;5111567;28;20132;-66
2021/07/14 09:17:30;;;;;;;30.38;27.25;;;21.40;93.50;;;;;;5112697;28;20127;-67
2021/07/14 09:20:10;;;;;;;29.98;27.17;;;21.40;93.50;;;;;;5111298;28;20522;-67
2021/07/14 09:22:37;;;;;;;32.23;28.93;;;21.40;93.30;;;;;;5110997;28;20051;-67
2021/07/14 09:25:12;;;;;;;31.70;28.80;;;21.40;93.30;;;;;;5111539;28;20048;-67
2021/07/14 09:27:38;;;;;;;31.52;28.27;;;21.40;93.30;;;;;;5110555;28;20074;-67
2021/07/14 09:30:15;;;;;;;34.00;30.73;;;21.40;93.40;;;;;;5111165;28;20040;-66
2021/07/14 09:32:56;;;;;;;31.83;28.70;;;21.40;93.40;;;;;;5111245;28;20093;-66
2021/07/14 09:35:45;;;;;;;31.05;28.10;;;21.40;93.40;;;;;;5109285;28;20062;-66
2021/07/14 09:38:15;;;;;;;31.48;28.45;;;21.50;93.40;;;;;;5110551;28;20047;-67
2021/07/14 09:40:44;;;;;;;32.35;29.08;;;21.50;93.40;;;;;;5111637;28;20326;-67
2021/07/14 09:43:12;;;;;;;32.05;29.00;;;21.50;93.40;;;;;;5110302;28;20040;-67
2021/07/14 09:45:41;;;;;;;31.55;28.48;;;21.60;93.30;;;;;;5107635;28;20052;-68
2021/07/14 09:48:08;;;;;;;33.65;30.05;;;21.60;93.30;;;;;;5106798;28;20097;-69
2021/07/14 09:50:39;;;;;;;30.27;27.17;;;21.70;93.30;;;;;;5108698;28;20070;-67
2021/07/14 09:53:07;;;;;;;30.77;27.60;;;21.60;93.20;;;;;;5109138;28;20399;-67
2021/07/14 09:55:33;;;;;;;31.27;28.17;;;21.70;93.30;;;;;;5108099;28;20054;-66
2021/07/14 09:58:16;;;;;;;30.75;27.63;;;21.70;93.30;;;;;;5108073;28;20062;-67
2021/07/14 10:00:46;;;;;;;29.73;26.65;;;21.80;93.20;;;;;;5107807;28;20069;-68
2021/07/14 10:03:33;;;;;;;26.33;23.95;;;21.90;93.30;;;;;;5107089;28;20067;-69
2021/07/14 10:06:04;;;;;;;27.33;24.52;;;22.00;92.70;;;;;;5105076;28;20135;-69
2021/07/14 10:08:31;;;;;;;28.48;24.70;;;21.90;92.60;;;;;;5107528;28;20131;-68
2021/07/14 10:11:17;;;;;;;27.90;25.00;;;22.00;92.70;;;;;;5107099;28;20109;-68
2021/07/14 10:14:01;;;;;;;26.45;23.08;;;22.00;92.50;;;;;;5107491;28;20051;-69
2021/07/14 10:16:31;;;;;;;25.63;23.05;;;22.00;92.20;;;;;;5103946;28;20032;-69
2021/07/14 10:19:14;;;;;;;25.38;22.75;;;22.00;92.20;;;;;;5108713;28;20056;-68
2021/07/14 10:21:45;;;;;;;27.30;22.55;;;22.00;91.90;;;;;;5107619;28;20411;-69
2021/07/14 10:24:14;;;;;;;25.50;22.98;;;22.00;92.00;;;;;;5104076;28;20527;-69
2021/07/14 10:26:42;;;;;;;25.42;22.27;;;22.00;92.00;;;;;;5107727;28;20052;-69
2021/07/14 10:29:08;;;;;;;25.13;22.58;;;22.00;92.10;;;;;;5108563;28;20453;-69
2021/07/14 10:31:35;;;;;;;24.63;22.23;;;22.00;92.10;;;;;;5109339;28;20127;-69
2021/07/14 10:34:04;;;;;;;24.55;22.15;;;22.10;91.90;;;;;;5113940;28;20142;-68
2021/07/14 10:36:32;;;;;;;24.95;22.20;;;22.10;91.80;;;;;;5114131;28;20054;-68
2021/07/14 10:39:06;;;;;;;25.20;22.60;;;22.20;91.80;;;;;;5114619;28;20048;-69
2021/07/14 10:41:32;;;;;;;24.95;22.30;;;22.20;91.70;;;;;;5115435;28;20047;-69
2021/07/14 10:43:59;;;;;;;27.20;23.73;;;22.20;91.70;;;;;;5115415;28;20058;-68
2021/07/14 10:46:31;;;;;;;25.70;22.00;;;22.20;91.60;;;;;;5114554;28;20127;-69
2021/07/14 10:48:59;;;;;;;27.02;23.73;;;22.20;91.70;;;;;;5115110;28;20419;-69
2021/07/14 10:51:27;;;;;;;28.67;22.65;;;22.10;91.50;;;;;;5114368;28;20135;-69
2021/07/14 10:54:00;;;;;;;25.83;22.75;;;22.10;91.60;;;;;;5115642;28;20104;-69
2021/07/14 10:56:27;;;;;;;26.35;22.00;;;22.10;91.50;;;;;;5114882;28;20126;-69
2021/07/14 10:58:53;;;;;;;24.33;21.95;;;22.20;91.90;;;;;;5113672;27;20059;-69
2021/07/14 11:01:41;;;;;;;23.45;20.63;;;22.20;91.40;;;;;;5114330;28;20039;-69
2021/07/14 11:04:30;;;;;;;24.98;22.42;;;22.30;91.30;;;;;;5114901;27;20441;-68
2021/07/14 11:07:02;;;;;;;26.70;24.00;;;22.30;90.90;;;;;;5103169;28;20051;-70
2021/07/14 11:09:47;;;;;;;25.63;22.92;;;22.30;91.10;;;;;;5114423;28;20112;-68
2021/07/14 11:12:14;;;;;;;27.92;23.42;;;22.30;91.30;;;;;;5114656;28;20047;-69
2021/07/14 11:14:49;;;;;;;25.10;22.40;;;22.30;91.30;;;;;;5113920;28;20078;-68
2021/07/14 11:17:16;;;;;;;24.45;21.95;;;22.30;91.20;;;;;;5114501;28;20126;-68
2021/07/14 11:19:50;;;;;;;27.05;22.63;;;22.20;91.30;;;;;;5114047;28;20048;-69
2021/07/14 11:22:35;;;;;;;24.92;22.30;;;22.20;91.70;;;;;;5114616;28;20051;-69
2021/07/14 11:25:04;;;;;;;28.00;22.98;;;22.30;91.30;;;;;;5114338;28;20476;-68
2021/07/14 11:27:30;;;;;;;28.17;22.40;;;22.30;91.40;;;;;;5113444;28;20054;-68
2021/07/14 11:30:01;;;;;;;26.42;22.25;;;22.40;91.40;;;;;;5114710;28;20426;-69
2021/07/14 11:32:33;;;;;;;27.27;24.27;;;22.40;91.30;;;;;;5114246;28;20070;-68
2021/07/14 11:35:26;;;;;;;27.13;22.83;;;22.40;91.20;;;;;;5113633;28;20039;-69
2021/07/14 11:37:54;;;;;;;25.10;22.40;;;22.40;91.10;;;;;;5110674;28;20044;-68
2021/07/14 11:40:26;;;;;;;24.35;21.80;;;22.30;91.10;;;;;;5113853;28;20492;-69
2021/07/14 11:42:56;;;;;;;24.15;21.23;;;22.40;91.30;;;;;;5113519;28;20065;-68
2021/07/14 11:45:33;;;;;;;28.25;23.98;;;22.40;91.20;;;;;;5112555;28;20051;-69
2021/07/14 11:48:04;;;;;;;28.17;22.30;;;22.40;90.80;;;;;;5113381;28;20541;-70
2021/07/14 11:50:42;;;;;;;25.08;22.60;;;22.40;90.90;;;;;;5113969;28;20063;-69
2021/07/14 11:53:28;;;;;;;27.40;21.95;;;22.40;90.90;;;;;;5114068;28;20073;-69
2021/07/14 11:56:06;;;;;;;24.13;21.58;;;22.50;91.00;;;;;;5113698;28;20047;-68
2021/07/14 11:58:54;;;;;;;27.15;22.88;;;22.60;91.00;;;;;;5114462;28;20043;-68
2021/07/14 12:01:24;;;;;;;23.77;21.05;;;22.70;90.70;;;;;;5113697;28;20051;-68
2021/07/14 12:04:01;;;;;;;24.17;21.55;;;22.70;90.70;;;;;;5114033;28;20117;-69
2021/07/14 12:06:43;;;;;;;25.08;20.77;;;22.70;90.60;;;;;;5113799;28;20051;-69
2021/07/14 12:09:12;;;;;;;24.65;20.40;;;22.70;90.70;;;;;;5112848;28;20525;-69
2021/07/14 12:11:44;;;;;;;22.55;19.95;;;22.70;90.70;;;;;;5113751;28;20043;-70
2021/07/14 12:14:14;;;;;;;24.63;19.58;;;22.60;90.50;;;;;;5113197;28;20077;-69
2021/07/14 12:16:45;;;;;;;22.77;20.10;;;22.60;90.60;;;;;;5113142;28;20097;-69
2021/07/14 12:19:10;;;;;;;22.43;20.13;;;22.70;90.70;;;;;;5113257;28;20463;-69
2021/07/14 12:21:37;;;;;;;21.00;18.80;;;22.60;90.70;;;;;;5113660;28;20075;-69
2021/07/14 12:24:04;;;;;;;20.40;18.27;;;22.60;90.70;;;;;;5112716;28;20380;-69
2021/07/14 12:26:30;;;;;;;23.15;18.05;;;22.60;90.60;;;;;;5113011;27;20402;-69
2021/07/14 12:28:56;;;;;;;20.35;16.98;;;22.60;90.70;;;;;;5113406;28;20047;-69
2021/07/14 12:31:22;;;;;;;22.75;18.05;;;22.60;90.70;;;;;;5112119;28;20081;-68
2021/07/14 12:33:52;;;;;;;19.70;17.40;;;22.60;90.80;;;;;;5113171;27;20055;-69
2021/07/14 12:36:19;;;;;;;20.50;17.83;;;22.70;90.70;;;;;;5112988;28;20051;-68
2021/07/14 12:38:56;;;;;;;19.52;17.52;;;22.70;90.70;;;;;;5112340;28;20047;-69
2021/07/14 12:41:25;;;;;;;19.80;16.45;;;22.80;90.70;;;;;;5112689;28;20044;-69
2021/07/14 12:44:07;;;;;;;20.02;16.85;;;22.80;90.60;;;;;;5112340;28;20135;-69